Terminal Aerodrome Forecast
Issued by NWS Duluth, MN

Home | Current Version | Previous Version | Text Only | Print | Product List | Glossary On
Versions: 1 2 3 4 5 6 7 8 9 10 11 12 13 14 15 16 17 18 19
064
FTUS43 KDLH 280919 AAB
TAFDLH
TAF AMD
KDLH 280919Z 2809/2906 23008KT P6SM VCSH BKN090
      TEMPO 2810/2812 6SM -SHRA BKN060
     FM281200 27008KT P6SM VCSH BKN040 BKN090
      TEMPO 2812/2816 5SM -SHRA BR BKN035
     FM281700 28011G18KT P6SM VCSH BKN040
     FM290300 29008KT P6SM VCSH BKN025=

USA.gov is the U.S. government's official web portal to all federal, state and local government web resources and services.